Legend:
Low (0-210)
Very High (490 - 630)

Moderate (210 - 350)
Extreme (630 - 800)

High (350 - 490)
Catastrophic (800+)


 
0.97
Date Temp. (°C) Wind Speed (km/h) Rain (mm) RH% Days Since Rain pwsFWI
Prediction is active (including today!), values are above red line.
18/12/19 9,00 13,00 0,60 0,80 0 13,37
17/12/19 15,00 22,00 2,10 0,67 0 19,76
16/12/19 9,00 17,00 0,40 0,81 0 7,41
15/12/19 9,00 29,00 1,50 0,76 0 17,55
14/12/19 8,00 31,00 4,60 0,69 0 10,30
13/12/19 6,80 12,30 9,90 0,88 0 0,97
12/12/19 7,40 15,20 1,70 0,81 0 10,38
11/12/19 7,70 15,40 3,70 0,75 0 4,04
10/12/19 7,40 17,90 0,30 0,74 0 11,74
09/12/19 8,40 22,90 7,10 0,79 0 7,28
08/12/19 11,40 23,60 1,70 0,74 0 13,21
07/12/19 10,10 15,00 0,00 0,80 1 15,05
06/12/19 9,30 20,20 7,90 0,90 0 9,64
05/12/19 3,70 15,10 0,40 0,91 0 9,80
04/12/19 9,60 3,90 0,30 0,83 0 12,21
03/12/19 6,80 6,10 0,00 0,90 1 7,06
02/12/19 9,80 5,00 0,80 0,86 0 9,43
01/12/19 3,60 6,90 0,40 0,87 0 12,78
30/11/19 9,90 3,40 0,30 0,79 0 16,07
29/11/19 10,80 6,10 0,00 0,71 1 19,65
28/11/19 10,20 17,30 11,30 0,88 0 18,72
27/11/19 12,30 19,00 8,50 0,82 0 28,94
26/11/19 12,00 10,60 1,00 0,83 0 27,41
25/11/19 13,80 6,80 0,30 0,78 0 26,06
24/11/19 12,90 6,60 0,00 0,78 2 23,35
23/11/19 8,50 6,30 0,00 0,79 1 18,04
CumulusUtils Version 2.0.1 - generated at 14/12/2019 00:01 - © Hans Rottier
Science background here. - NOTE: Behavioural testing still under way!
Prediction courtesy of https://www.yourweather.co.uk/